sensor_id;sensor_type;location;lat;lon;timestamp;pressure;altitude;pressure_sealevel;temperature;humidity
71716;BME280;59568;52.128;5.434;2022-11-14T00:01:08;101836.75;;;4.56;88.43
71716;BME280;59568;52.128;5.434;2022-11-14T00:03:35;101829.44;;;4.53;88.31
71716;BME280;59568;52.128;5.434;2022-11-14T00:06:07;101822.25;;;4.55;88.26
71716;BME280;59568;52.128;5.434;2022-11-14T00:08:34;101818.06;;;4.54;88.51
71716;BME280;59568;52.128;5.434;2022-11-14T00:11:02;101810.75;;;4.51;88.37
71716;BME280;59568;52.128;5.434;2022-11-14T00:13:29;101809.16;;;4.50;88.33
71716;BME280;59568;52.128;5.434;2022-11-14T00:15:56;101818.72;;;4.49;88.56
71716;BME280;59568;52.128;5.434;2022-11-14T00:18:23;101809.16;;;4.50;88.55
71716;BME280;59568;52.128;5.434;2022-11-14T00:20:51;101812.19;;;4.47;88.66
71716;BME280;59568;52.128;5.434;2022-11-14T00:23:19;101814.53;;;4.48;88.72
71716;BME280;59568;52.128;5.434;2022-11-14T00:25:46;101813.97;;;4.46;88.41
71716;BME280;59568;52.128;5.434;2022-11-14T00:28:13;101810.03;;;4.44;88.32
71716;BME280;59568;52.128;5.434;2022-11-14T00:30:40;101808.22;;;4.44;88.38
71716;BME280;59568;52.128;5.434;2022-11-14T00:33:07;101810.47;;;4.40;88.61
71716;BME280;59568;52.128;5.434;2022-11-14T00:35:34;101815.06;;;4.38;88.58
71716;BME280;59568;52.128;5.434;2022-11-14T00:38:01;101811.91;;;4.36;88.69
71716;BME280;59568;52.128;5.434;2022-11-14T00:40:28;101808.75;;;4.34;88.77
71716;BME280;59568;52.128;5.434;2022-11-14T00:42:55;101810.19;;;4.30;88.74
71716;BME280;59568;52.128;5.434;2022-11-14T00:45:21;101812.78;;;4.30;88.75
71716;BME280;59568;52.128;5.434;2022-11-14T00:47:48;101823.13;;;4.30;88.60
71716;BME280;59568;52.128;5.434;2022-11-14T00:50:15;101818.22;;;4.29;88.84
71716;BME280;59568;52.128;5.434;2022-11-14T00:52:42;101815.63;;;4.29;89.11
71716;BME280;59568;52.128;5.434;2022-11-14T00:55:09;101811.44;;;4.28;89.04
71716;BME280;59568;52.128;5.434;2022-11-14T00:57:36;101813.47;;;4.26;89.03
71716;BME280;59568;52.128;5.434;2022-11-14T01:00:04;101802.75;;;4.22;88.98
71716;BME280;59568;52.128;5.434;2022-11-14T01:02:31;101797.00;;;4.20;88.94
71716;BME280;59568;52.128;5.434;2022-11-14T01:04:58;101796.44;;;4.18;89.15
71716;BME280;59568;52.128;5.434;2022-11-14T01:07:25;101794.28;;;4.15;89.07
71716;BME280;59568;52.128;5.434;2022-11-14T01:09:52;101785.97;;;4.13;89.10
71716;BME280;59568;52.128;5.434;2022-11-14T01:12:19;101781.78;;;4.12;89.30
71716;BME280;59568;52.128;5.434;2022-11-14T01:14:46;101777.06;;;4.09;89.30
71716;BME280;59568;52.128;5.434;2022-11-14T01:17:13;101771.88;;;4.09;89.26
71716;BME280;59568;52.128;5.434;2022-11-14T01:19:40;101767.13;;;4.06;89.15
71716;BME280;59568;52.128;5.434;2022-11-14T01:22:07;101769.94;;;4.04;88.89
71716;BME280;59568;52.128;5.434;2022-11-14T01:24:34;101772.75;;;4.03;89.29
71716;BME280;59568;52.128;5.434;2022-11-14T01:27:01;101764.44;;;4.00;89.25
71716;BME280;59568;52.128;5.434;2022-11-14T01:29:27;101757.66;;;3.99;89.46
71716;BME280;59568;52.128;5.434;2022-11-14T01:31:55;101754.72;;;3.96;89.44
71716;BME280;59568;52.128;5.434;2022-11-14T01:34:22;101748.97;;;3.94;89.33
71716;BME280;59568;52.128;5.434;2022-11-14T01:36:49;101743.25;;;3.92;89.57
71716;BME280;59568;52.128;5.434;2022-11-14T01:39:16;101742.47;;;3.91;89.59
71716;BME280;59568;52.128;5.434;2022-11-14T01:41:42;101735.69;;;3.90;89.69
71716;BME280;59568;52.128;5.434;2022-11-14T01:44:15;101743.44;;;3.90;89.77
71716;BME280;59568;52.128;5.434;2022-11-14T01:46:46;101738.72;;;3.87;89.62
71716;BME280;59568;52.128;5.434;2022-11-14T01:49:25;101740.75;;;3.85;89.72
71716;BME280;59568;52.128;5.434;2022-11-14T01:52:23;101730.63;;;3.84;89.54
71716;BME280;59568;52.128;5.434;2022-11-14T01:54:54;101725.66;;;3.82;89.98
71716;BME280;59568;52.128;5.434;2022-11-14T01:57:27;101721.72;;;3.79;89.85
71716;BME280;59568;52.128;5.434;2022-11-14T01:59:59;101715.75;;;3.79;89.95
71716;BME280;59568;52.128;5.434;2022-11-14T02:02:26;101704.63;;;3.78;89.84
71716;BME280;59568;52.128;5.434;2022-11-14T02:05:02;101705.84;;;3.76;89.97
71716;BME280;59568;52.128;5.434;2022-11-14T02:07:33;101705.28;;;3.74;90.00
71716;BME280;59568;52.128;5.434;2022-11-14T02:10:06;101696.38;;;3.70;90.05
71716;BME280;59568;52.128;5.434;2022-11-14T02:12:34;101702.56;;;3.69;90.00
71716;BME280;59568;52.128;5.434;2022-11-14T02:15:01;101703.56;;;3.68;90.33
71716;BME280;59568;52.128;5.434;2022-11-14T02:17:29;101700.41;;;3.66;90.28
71716;BME280;59568;52.128;5.434;2022-11-14T02:22:39;101697.91;;;3.59;90.49
71716;BME280;59568;52.128;5.434;2022-11-14T02:25:08;101691.59;;;3.55;90.20
71716;BME280;59568;52.128;5.434;2022-11-14T02:27:37;101688.22;;;3.54;90.25
71716;BME280;59568;52.128;5.434;2022-11-14T02:30:07;101682.69;;;3.51;90.74
71716;BME280;59568;52.128;5.434;2022-11-14T02:32:34;101686.06;;;3.51;90.49
71716;BME280;59568;52.128;5.434;2022-11-14T02:35:21;101682.34;;;3.47;90.32
71716;BME280;59568;52.128;5.434;2022-11-14T02:37:48;101678.19;;;3.46;90.60
71716;BME280;59568;52.128;5.434;2022-11-14T02:40:15;101685.38;;;3.44;90.61
71716;BME280;59568;52.128;5.434;2022-11-14T02:42:42;101681.97;;;3.44;90.71
71716;BME280;59568;52.128;5.434;2022-11-14T02:45:10;101678.81;;;3.42;90.77
71716;BME280;59568;52.128;5.434;2022-11-14T02:47:37;101681.59;;;3.40;90.77
71716;BME280;59568;52.128;5.434;2022-11-14T02:50:04;101675.28;;;3.36;90.96
71716;BME280;59568;52.128;5.434;2022-11-14T02:52:31;101676.88;;;3.37;91.06
71716;BME280;59568;52.128;5.434;2022-11-14T02:54:58;101678.91;;;3.35;90.62
71716;BME280;59568;52.128;5.434;2022-11-14T02:57:25;101669.78;;;3.32;91.00
71716;BME280;59568;52.128;5.434;2022-11-14T02:59:52;101668.97;;;3.32;91.10
71716;BME280;59568;52.128;5.434;2022-11-14T03:02:18;101679.75;;;3.29;90.96
71716;BME280;59568;52.128;5.434;2022-11-14T03:04:45;101670.66;;;3.26;90.87
71716;BME280;59568;52.128;5.434;2022-11-14T03:07:12;101673.44;;;3.25;90.76
71716;BME280;59568;52.128;5.434;2022-11-14T03:09:39;101675.00;;;3.26;91.00
71716;BME280;59568;52.128;5.434;2022-11-14T03:12:06;101666.91;;;3.22;91.20
71716;BME280;59568;52.128;5.434;2022-11-14T03:14:33;101672.28;;;3.20;91.06
71716;BME280;59568;52.128;5.434;2022-11-14T03:17:00;101661.59;;;3.17;90.99
71716;BME280;59568;52.128;5.434;2022-11-14T03:19:27;101655.06;;;3.14;91.30
71716;BME280;59568;52.128;5.434;2022-11-14T03:21:54;101648.53;;;3.12;90.97
71716;BME280;59568;52.128;5.434;2022-11-14T03:24:21;101645.16;;;3.11;91.12
71716;BME280;59568;52.128;5.434;2022-11-14T03:26:48;101644.38;;;3.11;91.17
71716;BME280;59568;52.128;5.434;2022-11-14T03:29:14;101646.19;;;3.10;91.38
71716;BME280;59568;52.128;5.434;2022-11-14T03:31:42;101643.03;;;3.08;91.55
71716;BME280;59568;52.128;5.434;2022-11-14T03:34:09;101644.00;;;3.07;91.45
71716;BME280;59568;52.128;5.434;2022-11-14T03:36:36;101637.72;;;3.03;91.40
71716;BME280;59568;52.128;5.434;2022-11-14T03:39:04;101639.72;;;3.01;91.30
71716;BME280;59568;52.128;5.434;2022-11-14T03:41:31;101635.56;;;3.00;91.33
71716;BME280;59568;52.128;5.434;2022-11-14T03:43:58;101627.25;;;2.98;91.45
71716;BME280;59568;52.128;5.434;2022-11-14T03:46:24;101626.44;;;2.97;91.38
71716;BME280;59568;52.128;5.434;2022-11-14T03:48:51;101615.31;;;2.97;91.49
71716;BME280;59568;52.128;5.434;2022-11-14T03:51:18;101626.09;;;2.94;91.44
71716;BME280;59568;52.128;5.434;2022-11-14T03:53:45;101615.19;;;2.92;91.46
71716;BME280;59568;52.128;5.434;2022-11-14T03:56:12;101622.13;;;2.91;91.56
71716;BME280;59568;52.128;5.434;2022-11-14T03:58:39;101621.34;;;2.91;91.69
71716;BME280;59568;52.128;5.434;2022-11-14T04:01:06;101609.66;;;2.88;91.43
71716;BME280;59568;52.128;5.434;2022-11-14T04:03:33;101604.13;;;2.85;91.60
71716;BME280;59568;52.128;5.434;2022-11-14T04:05:59;101607.72;;;2.84;91.34
71716;BME280;59568;52.128;5.434;2022-11-14T04:08:26;101603.56;;;2.83;91.46
71716;BME280;59568;52.128;5.434;2022-11-14T04:10:54;101613.31;;;2.80;91.54
71716;BME280;59568;52.128;5.434;2022-11-14T04:13:20;101601.41;;;2.79;91.54
71716;BME280;59568;52.128;5.434;2022-11-14T04:15:53;101602.41;;;2.78;91.67
71716;BME280;59568;52.128;5.434;2022-11-14T04:18:21;101597.25;;;2.78;91.64
71716;BME280;59568;52.128;5.434;2022-11-14T04:20:48;101600.63;;;2.79;91.61
71716;BME280;59568;52.128;5.434;2022-11-14T04:23:15;101594.66;;;2.78;91.87
71716;BME280;59568;52.128;5.434;2022-11-14T04:25:45;101584.19;;;2.73;91.68
71716;BME280;59568;52.128;5.434;2022-11-14T04:28:12;101591.50;;;2.76;91.78
71716;BME280;59568;52.128;5.434;2022-11-14T04:30:40;101592.94;;;2.72;91.71
71716;BME280;59568;52.128;5.434;2022-11-14T04:33:07;101594.75;;;2.72;91.83
71716;BME280;59568;52.128;5.434;2022-11-14T04:35:34;101586.63;;;2.68;91.58
71716;BME280;59568;52.128;5.434;2022-11-14T04:38:00;101591.03;;;2.68;91.55
71716;BME280;59568;52.128;5.434;2022-11-14T04:40:27;101579.09;;;2.67;91.53
71716;BME280;59568;52.128;5.434;2022-11-14T04:42:54;101587.28;;;2.64;91.83
71716;BME280;59568;52.128;5.434;2022-11-14T04:45:21;101574.78;;;2.60;92.08
71716;BME280;59568;52.128;5.434;2022-11-14T04:47:48;101584.34;;;2.60;91.99
71716;BME280;59568;52.128;5.434;2022-11-14T04:50:15;101577.59;;;2.59;92.11
71716;BME280;59568;52.128;5.434;2022-11-14T04:52:42;101572.41;;;2.59;91.63
71716;BME280;59568;52.128;5.434;2022-11-14T04:55:09;101564.88;;;2.57;91.55
71716;BME280;59568;52.128;5.434;2022-11-14T04:57:36;101563.31;;;2.56;91.45
71716;BME280;59568;52.128;5.434;2022-11-14T05:00:03;101560.59;;;2.51;91.17
71716;BME280;59568;52.128;5.434;2022-11-14T05:02:30;101559.22;;;2.49;91.46
71716;BME280;59568;52.128;5.434;2022-11-14T05:04:58;101554.50;;;2.46;91.42
71716;BME280;59568;52.128;5.434;2022-11-14T05:07:25;101551.94;;;2.46;91.72
71716;BME280;59568;52.128;5.434;2022-11-14T05:09:52;101548.78;;;2.44;91.42
71716;BME280;59568;52.128;5.434;2022-11-14T05:12:18;101547.97;;;2.43;91.56
71716;BME280;59568;52.128;5.434;2022-11-14T05:14:45;101546.81;;;2.39;91.51
71716;BME280;59568;52.128;5.434;2022-11-14T05:17:12;101544.47;;;2.37;91.55
71716;BME280;59568;52.128;5.434;2022-11-14T05:19:39;101542.88;;;2.36;91.42
71716;BME280;59568;52.128;5.434;2022-11-14T05:22:06;101541.88;;;2.37;91.30
71716;BME280;59568;52.128;5.434;2022-11-14T05:24:33;101536.13;;;2.35;91.55
71716;BME280;59568;52.128;5.434;2022-11-14T05:26:59;101541.72;;;2.32;91.58
71716;BME280;59568;52.128;5.434;2022-11-14T05:29:26;101541.16;;;2.30;91.19
71716;BME280;59568;52.128;5.434;2022-11-14T05:31:53;101542.94;;;2.30;91.30
71716;BME280;59568;52.128;5.434;2022-11-14T05:34:20;101538.97;;;2.27;91.27
71716;BME280;59568;52.128;5.434;2022-11-14T05:36:47;101540.19;;;2.25;91.41
71716;BME280;59568;52.128;5.434;2022-11-14T05:39:15;101540.00;;;2.26;91.29
71716;BME280;59568;52.128;5.434;2022-11-14T05:41:41;101542.97;;;2.23;91.76
71716;BME280;59568;52.128;5.434;2022-11-14T05:44:08;101541.22;;;2.24;91.53
71716;BME280;59568;52.128;5.434;2022-11-14T05:46:35;101537.81;;;2.23;91.83
71716;BME280;59568;52.128;5.434;2022-11-14T05:49:02;101540.63;;;2.22;91.70
71716;BME280;59568;52.128;5.434;2022-11-14T05:51:29;101531.31;;;2.20;91.74
71716;BME280;59568;52.128;5.434;2022-11-14T05:53:57;101534.09;;;2.19;92.10
71716;BME280;59568;52.128;5.434;2022-11-14T05:56:24;101535.09;;;2.18;92.04
71716;BME280;59568;52.128;5.434;2022-11-14T05:58:51;101532.31;;;2.19;91.91
71716;BME280;59568;52.128;5.434;2022-11-14T06:01:18;101531.94;;;2.16;91.93
71716;BME280;59568;52.128;5.434;2022-11-14T06:03:47;101534.31;;;2.17;91.83
71716;BME280;59568;52.128;5.434;2022-11-14T06:06:16;101525.19;;;2.15;91.75
71716;BME280;59568;52.128;5.434;2022-11-14T06:08:43;101526.00;;;2.15;91.88
71716;BME280;59568;52.128;5.434;2022-11-14T06:11:16;101528.00;;;2.13;91.94
71716;BME280;59568;52.128;5.434;2022-11-14T06:13:44;101518.88;;;2.11;91.92
71716;BME280;59568;52.128;5.434;2022-11-14T06:16:14;101517.53;;;2.08;92.20
71716;BME280;59568;52.128;5.434;2022-11-14T06:18:42;101526.06;;;2.09;92.10
71716;BME280;59568;52.128;5.434;2022-11-14T06:21:13;101515.75;;;2.09;92.07
71716;BME280;59568;52.128;5.434;2022-11-14T06:23:41;101515.75;;;2.09;92.13
71716;BME280;59568;52.128;5.434;2022-11-14T06:26:27;101512.59;;;2.07;91.96
71716;BME280;59568;52.128;5.434;2022-11-14T06:28:58;101510.00;;;2.07;92.13
71716;BME280;59568;52.128;5.434;2022-11-14T06:31:26;101515.38;;;2.05;92.10
71716;BME280;59568;52.128;5.434;2022-11-14T06:33:53;101503.69;;;2.03;92.05
71716;BME280;59568;52.128;5.434;2022-11-14T06:36:20;101514.00;;;2.03;91.78
71716;BME280;59568;52.128;5.434;2022-11-14T06:38:47;101518.59;;;2.00;91.99
71716;BME280;59568;52.128;5.434;2022-11-14T06:41:19;101527.34;;;1.99;91.81
71716;BME280;59568;52.128;5.434;2022-11-14T06:43:48;101531.91;;;1.97;91.61
71716;BME280;59568;52.128;5.434;2022-11-14T06:46:18;101521.03;;;1.95;91.74
71716;BME280;59568;52.128;5.434;2022-11-14T06:48:46;101525.59;;;1.93;91.86
71716;BME280;59568;52.128;5.434;2022-11-14T06:51:15;101533.91;;;1.95;91.96
71716;BME280;59568;52.128;5.434;2022-11-14T06:53:43;101528.19;;;1.93;91.63
71716;BME280;59568;52.128;5.434;2022-11-14T06:56:15;101528.19;;;1.93;91.68
71716;BME280;59568;52.128;5.434;2022-11-14T06:58:46;101528.38;;;1.92;91.67
71716;BME280;59568;52.128;5.434;2022-11-14T07:03:43;101530.94;;;1.92;91.85
71716;BME280;59568;52.128;5.434;2022-11-14T07:06:12;101522.44;;;1.91;91.83
71716;BME280;59568;52.128;5.434;2022-11-14T07:08:39;101523.84;;;1.87;91.94
71716;BME280;59568;52.128;5.434;2022-11-14T07:11:08;101517.69;;;1.88;92.03
71716;BME280;59568;52.128;5.434;2022-11-14T07:13:36;101521.63;;;1.91;92.07
71716;BME280;59568;52.128;5.434;2022-11-14T07:16:03;101523.44;;;1.90;91.91
71716;BME280;59568;52.128;5.434;2022-11-14T07:18:31;101521.84;;;1.89;92.24
71716;BME280;59568;52.128;5.434;2022-11-14T07:21:02;101527.00;;;1.89;92.27
71716;BME280;59568;52.128;5.434;2022-11-14T07:23:31;101522.22;;;1.93;92.30
71716;BME280;59568;52.128;5.434;2022-11-14T07:26:02;101535.47;;;1.96;92.39
71716;BME280;59568;52.128;5.434;2022-11-14T07:28:30;101534.47;;;1.97;92.27
71716;BME280;59568;52.128;5.434;2022-11-14T07:30:58;101540.00;;;2.01;92.31
71716;BME280;59568;52.128;5.434;2022-11-14T07:33:24;101542.16;;;2.04;92.35
71716;BME280;59568;52.128;5.434;2022-11-14T07:35:51;101534.41;;;2.04;92.58
71716;BME280;59568;52.128;5.434;2022-11-14T07:38:18;101534.34;;;2.11;92.26
71716;BME280;59568;52.128;5.434;2022-11-14T07:40:52;101539.09;;;2.14;92.32
71716;BME280;59568;52.128;5.434;2022-11-14T07:43:26;101539.47;;;2.17;92.56
71716;BME280;59568;52.128;5.434;2022-11-14T07:45:58;101535.69;;;2.20;92.30
71716;BME280;59568;52.128;5.434;2022-11-14T07:48:25;101524.94;;;2.23;92.38
71716;BME280;59568;52.128;5.434;2022-11-14T07:50:52;101530.84;;;2.30;92.29
71716;BME280;59568;52.128;5.434;2022-11-14T07:53:19;101532.34;;;2.38;92.46
71716;BME280;59568;52.128;5.434;2022-11-14T07:55:46;101525.75;;;2.42;92.61
71716;BME280;59568;52.128;5.434;2022-11-14T07:58:13;101522.75;;;2.45;92.55
71716;BME280;59568;52.128;5.434;2022-11-14T08:00:40;101518.53;;;2.51;92.33
71716;BME280;59568;52.128;5.434;2022-11-14T08:03:07;101517.53;;;2.52;92.32
71716;BME280;59568;52.128;5.434;2022-11-14T08:05:35;101514.50;;;2.55;92.37
71716;BME280;59568;52.128;5.434;2022-11-14T08:08:02;101514.66;;;2.60;92.33
71716;BME280;59568;52.128;5.434;2022-11-14T08:10:30;101504.09;;;2.62;92.19
71716;BME280;59568;52.128;5.434;2022-11-14T08:13:01;101508.66;;;2.66;92.01
71716;BME280;59568;52.128;5.434;2022-11-14T08:15:49;101503.03;;;2.69;92.10
71716;BME280;59568;52.128;5.434;2022-11-14T08:18:16;101506.56;;;2.75;92.23
71716;BME280;59568;52.128;5.434;2022-11-14T08:20:44;101501.59;;;2.73;92.25
71716;BME280;59568;52.128;5.434;2022-11-14T08:23:11;101507.34;;;2.75;91.99
71716;BME280;59568;52.128;5.434;2022-11-14T08:25:39;101496.81;;;2.77;92.00
71716;BME280;59568;52.128;5.434;2022-11-14T08:28:07;101491.44;;;2.78;91.98
71716;BME280;59568;52.128;5.434;2022-11-14T08:30:34;101493.34;;;2.83;92.15
71716;BME280;59568;52.128;5.434;2022-11-14T08:33:03;101489.34;;;2.87;92.15
71716;BME280;59568;52.128;5.434;2022-11-14T08:35:31;101495.88;;;2.90;91.91
71716;BME280;59568;52.128;5.434;2022-11-14T08:38:00;101487.69;;;2.93;92.01
71716;BME280;59568;52.128;5.434;2022-11-14T08:40:28;101489.03;;;2.95;92.00
71716;BME280;59568;52.128;5.434;2022-11-14T08:42:59;101489.38;;;2.99;92.05
71716;BME280;59568;52.128;5.434;2022-11-14T08:45:28;101478.66;;;3.02;91.99
71716;BME280;59568;52.128;5.434;2022-11-14T08:47:55;101480.56;;;3.07;92.07
71716;BME280;59568;52.128;5.434;2022-11-14T08:50:22;101476.53;;;3.11;92.09
71716;BME280;59568;52.128;5.434;2022-11-14T08:52:50;101468.56;;;3.12;92.25
71716;BME280;59568;52.128;5.434;2022-11-14T08:55:20;101479.59;;;3.19;91.99
71716;BME280;59568;52.128;5.434;2022-11-14T08:57:47;101476.69;;;3.28;92.15
71716;BME280;59568;52.128;5.434;2022-11-14T09:00:16;101468.06;;;3.34;92.28
71716;BME280;59568;52.128;5.434;2022-11-14T09:02:43;101475.94;;;3.39;92.46
71716;BME280;59568;52.128;5.434;2022-11-14T09:05:10;101475.06;;;3.45;92.59
71716;BME280;59568;52.128;5.434;2022-11-14T09:07:37;101473.59;;;3.49;92.41
71716;BME280;59568;52.128;5.434;2022-11-14T09:10:04;101475.75;;;3.52;92.39
71716;BME280;59568;52.128;5.434;2022-11-14T09:12:32;101466.09;;;3.59;92.01
71716;BME280;59568;52.128;5.434;2022-11-14T09:14:59;101466.22;;;3.65;92.07
71716;BME280;59568;52.128;5.434;2022-11-14T09:17:26;101460.38;;;3.69;92.18
71716;BME280;59568;52.128;5.434;2022-11-14T09:19:53;101462.41;;;3.79;92.15
71716;BME280;59568;52.128;5.434;2022-11-14T09:22:20;101459.16;;;3.84;92.05
71716;BME280;59568;52.128;5.434;2022-11-14T09:24:47;101459.59;;;3.92;92.32
71716;BME280;59568;52.128;5.434;2022-11-14T09:27:15;101459.72;;;3.97;92.29
71716;BME280;59568;52.128;5.434;2022-11-14T09:29:42;101451.28;;;4.02;92.22
71716;BME280;59568;52.128;5.434;2022-11-14T09:32:09;101447.00;;;4.08;92.31
71716;BME280;59568;52.128;5.434;2022-11-14T09:34:36;101441.69;;;4.14;92.34
71716;BME280;59568;52.128;5.434;2022-11-14T09:37:08;101450.91;;;4.22;92.25
71716;BME280;59568;52.128;5.434;2022-11-14T09:39:35;101444.41;;;4.31;92.25
71716;BME280;59568;52.128;5.434;2022-11-14T09:45:15;101445.34;;;4.54;92.36
71716;BME280;59568;52.128;5.434;2022-11-14T09:47:49;101435.66;;;4.61;92.51
71716;BME280;59568;52.128;5.434;2022-11-14T09:50:23;101435.28;;;4.69;92.55
71716;BME280;59568;52.128;5.434;2022-11-14T09:52:55;101439.41;;;4.82;92.28
71716;BME280;59568;52.128;5.434;2022-11-14T09:55:28;101432.69;;;4.98;92.12
71716;BME280;59568;52.128;5.434;2022-11-14T09:58:02;101428.94;;;5.06;91.96
71716;BME280;59568;52.128;5.434;2022-11-14T10:01:04;101430.13;;;5.15;91.93
71716;BME280;59568;52.128;5.434;2022-11-14T10:04:38;101429.50;;;5.25;92.28
71716;BME280;59568;52.128;5.434;2022-11-14T10:06:50;101431.81;;;5.38;91.33
71716;BME280;59568;52.128;5.434;2022-11-14T10:12:35;101431.09;;;5.59;90.93
71716;BME280;59568;52.128;5.434;2022-11-14T10:15:22;101431.47;;;5.68;90.75
71716;BME280;59568;52.128;5.434;2022-11-14T10:21:29;101422.03;;;5.79;90.21
71716;BME280;59568;52.128;5.434;2022-11-14T10:26:30;101417.06;;;5.94;89.73
71716;BME280;59568;52.128;5.434;2022-11-14T10:38:01;101407.03;;;6.20;88.24
71716;BME280;59568;52.128;5.434;2022-11-14T10:43:25;101403.19;;;6.28;88.54
71716;BME280;59568;52.128;5.434;2022-11-14T10:48:33;101390.38;;;6.38;88.11
71716;BME280;59568;52.128;5.434;2022-11-14T10:51:06;101389.63;;;6.43;88.31
71716;BME280;59568;52.128;5.434;2022-11-14T10:53:57;101388.16;;;6.52;87.83
71716;BME280;59568;52.128;5.434;2022-11-14T10:56:26;101375.22;;;6.57;87.82
71716;BME280;59568;52.128;5.434;2022-11-14T10:58:53;101368.28;;;6.63;87.50
71716;BME280;59568;52.128;5.434;2022-11-14T11:04:34;101372.78;;;6.72;87.37
71716;BME280;59568;52.128;5.434;2022-11-14T11:09:37;101366.09;;;6.82;86.84
71716;BME280;59568;52.128;5.434;2022-11-14T11:17:54;101361.28;;;6.95;86.18
71716;BME280;59568;52.128;5.434;2022-11-14T11:20:36;101351.97;;;6.99;85.95
71716;BME280;59568;52.128;5.434;2022-11-14T11:25:38;101349.69;;;7.08;86.06
71716;BME280;59568;52.128;5.434;2022-11-14T11:28:17;101344.28;;;7.15;85.92
71716;BME280;59568;52.128;5.434;2022-11-14T11:30:58;101335.75;;;7.19;85.62
71716;BME280;59568;52.128;5.434;2022-11-14T11:33:34;101328.00;;;7.25;85.57
71716;BME280;59568;52.128;5.434;2022-11-14T11:36:12;101328.00;;;7.30;85.33
71716;BME280;59568;52.128;5.434;2022-11-14T11:38:41;101334.03;;;7.35;85.08
71716;BME280;59568;52.128;5.434;2022-11-14T11:41:30;101329.94;;;7.45;85.13
71716;BME280;59568;52.128;5.434;2022-11-14T11:44:20;101336.72;;;7.51;85.13
71716;BME280;59568;52.128;5.434;2022-11-14T11:46:55;101326.88;;;7.58;85.15
71716;BME280;59568;52.128;5.434;2022-11-14T11:52:02;101332.16;;;7.73;84.86
71716;BME280;59568;52.128;5.434;2022-11-14T11:55:26;101331.91;;;7.75;83.92
71716;BME280;59568;52.128;5.434;2022-11-14T11:57:46;101332.97;;;7.79;84.12
71716;BME280;59568;52.128;5.434;2022-11-14T12:00:18;101334.53;;;7.85;84.01
71716;BME280;59568;52.128;5.434;2022-11-14T12:02:48;101334.56;;;7.90;83.60
71716;BME280;59568;52.128;5.434;2022-11-14T12:05:17;101344.47;;;7.93;83.51
71716;BME280;59568;52.128;5.434;2022-11-14T12:08:02;101333.81;;;8.00;83.27
71716;BME280;59568;52.128;5.434;2022-11-14T12:10:33;101329.66;;;7.99;83.20
71716;BME280;59568;52.128;5.434;2022-11-14T12:26:39;101345.06;;;8.16;82.05
71716;BME280;59568;52.128;5.434;2022-11-14T12:32:09;101332.78;;;8.06;82.47
71716;BME280;59568;52.128;5.434;2022-11-14T12:34:40;101323.69;;;8.04;82.76
71716;BME280;59568;52.128;5.434;2022-11-14T12:37:15;101327.31;;;7.97;82.65
71716;BME280;59568;52.128;5.434;2022-11-14T12:39:59;101324.44;;;7.99;82.59
71716;BME280;59568;52.128;5.434;2022-11-14T12:42:27;101329.38;;;8.00;82.98
71716;BME280;59568;52.128;5.434;2022-11-14T12:44:54;101317.66;;;7.98;82.90
71716;BME280;59568;52.128;5.434;2022-11-14T12:47:28;101318.72;;;8.02;83.50
71716;BME280;59568;52.128;5.434;2022-11-14T12:58:05;101318.13;;;7.85;83.63
71716;BME280;59568;52.128;5.434;2022-11-14T13:06:28;101317.84;;;7.71;83.72
71716;BME280;59568;52.128;5.434;2022-11-14T13:09:24;101311.06;;;7.65;83.55
71716;BME280;59568;52.128;5.434;2022-11-14T13:11:56;101308.13;;;7.56;83.82
71716;BME280;59568;52.128;5.434;2022-11-14T13:14:49;101303.66;;;7.46;83.63
71716;BME280;59568;52.128;5.434;2022-11-14T13:17:36;101304.94;;;7.44;83.93
71716;BME280;59568;52.128;5.434;2022-11-14T13:34:00;101264.56;;;7.26;84.65
71716;BME280;59568;52.128;5.434;2022-11-14T13:37:16;101266.13;;;7.27;84.68
71716;BME280;59568;52.128;5.434;2022-11-14T13:39:58;101260.41;;;7.25;84.64
71716;BME280;59568;52.128;5.434;2022-11-14T13:51:24;101241.69;;;7.28;85.71
71716;BME280;59568;52.128;5.434;2022-11-14T13:54:12;101239.09;;;7.28;85.53
71716;BME280;59568;52.128;5.434;2022-11-14T13:57:14;101234.44;;;7.30;85.65
71716;BME280;59568;52.128;5.434;2022-11-14T14:02:31;101224.31;;;7.33;85.85
71716;BME280;59568;52.128;5.434;2022-11-14T14:08:02;101247.94;;;7.32;85.62
71716;BME280;59568;52.128;5.434;2022-11-14T14:19:17;101247.13;;;7.21;84.97
71716;BME280;59568;52.128;5.434;2022-11-14T14:22:06;101258.28;;;7.16;84.75
71716;BME280;59568;52.128;5.434;2022-11-14T14:27:36;101258.50;;;7.10;84.97
71716;BME280;59568;52.128;5.434;2022-11-14T14:30:13;101259.78;;;7.07;84.94
71716;BME280;59568;52.128;5.434;2022-11-14T14:32:41;101256.41;;;7.07;84.90
71716;BME280;59568;52.128;5.434;2022-11-14T14:35:25;101246.25;;;7.05;84.96
71716;BME280;59568;52.128;5.434;2022-11-14T14:37:54;101250.69;;;7.05;85.12
71716;BME280;59568;52.128;5.434;2022-11-14T14:40:25;101253.00;;;7.01;84.89
71716;BME280;59568;52.128;5.434;2022-11-14T14:42:53;101244.41;;;7.00;85.26
71716;BME280;59568;52.128;5.434;2022-11-14T14:45:22;101241.53;;;6.97;85.32
71716;BME280;59568;52.128;5.434;2022-11-14T14:48:04;101235.28;;;6.98;85.58
71716;BME280;59568;52.128;5.434;2022-11-14T14:50:37;101229.56;;;6.96;85.40
71716;BME280;59568;52.128;5.434;2022-11-14T14:53:05;101218.63;;;6.94;85.43
71716;BME280;59568;52.128;5.434;2022-11-14T14:55:34;101223.84;;;6.94;85.43
71716;BME280;59568;52.128;5.434;2022-11-14T15:00:57;101214.50;;;6.93;85.55
71716;BME280;59568;52.128;5.434;2022-11-14T15:03:34;101203.06;;;6.94;85.57
71716;BME280;59568;52.128;5.434;2022-11-14T15:06:28;101196.31;;;6.93;85.57
71716;BME280;59568;52.128;5.434;2022-11-14T15:11:34;101203.81;;;6.84;85.58
71716;BME280;59568;52.128;5.434;2022-11-14T15:14:02;101201.44;;;6.83;85.67
71716;BME280;59568;52.128;5.434;2022-11-14T15:16:30;101211.84;;;6.83;85.82
71716;BME280;59568;52.128;5.434;2022-11-14T15:18:57;101213.38;;;6.84;85.93
71716;BME280;59568;52.128;5.434;2022-11-14T15:21:27;101211.03;;;6.82;86.50